Time,TemperatureF,DewpointF,PressureIn,WindDirection,WindDirectionDegrees,WindSpeedMPH,WindSpeedGustMPH,Humidity,HourlyPrecipIn,Conditions,Clouds,dailyrainin,SoftwareType,DateUTC
2013-11-20 00:00:00,72.8,70.3,29.94,WNW,295,0.0,0.0,92,0.00,,,0.00,Wunderground v.1.15,2013-11-20 05:00:00,
2013-11-20 00:10:00,72.7,70.6,29.94,WNW,294,0.0,0.0,93,0.00,,,0.00,Wunderground v.1.15,2013-11-20 05:10:00,
2013-11-20 00:20:00,72.6,70.5,29.94,WNW,294,0.0,0.0,93,0.00,,,0.00,Wunderground v.1.15,2013-11-20 05:20:00,
2013-11-20 00:30:00,72.6,70.5,29.94,WNW,293,0.0,0.0,93,0.00,,,0.00,Wunderground v.1.15,2013-11-20 05:30:00,
2013-11-20 00:40:00,72.5,70.4,29.94,WNW,294,0.0,0.0,93,0.00,,,0.00,Wunderground v.1.15,2013-11-20 05:40:00,
2013-11-20 00:50:00,72.6,70.5,29.94,WNW,295,0.0,0.0,93,0.00,,,0.00,Wunderground v.1.15,2013-11-20 05:50:00,
2013-11-20 01:00:00,72.4,70.3,29.94,WNW,295,0.0,0.0,93,0.00,,,0.00,Wunderground v.1.15,2013-11-20 06:00:00,
2013-11-20 01:10:00,72.6,70.5,29.94,ENE,72,1.0,1.0,93,0.00,,,0.00,Wunderground v.1.15,2013-11-20 06:10:00,
2013-11-20 01:20:00,72.8,70.7,29.94,ENE,75,0.0,0.0,93,0.00,,,0.00,Wunderground v.1.15,2013-11-20 06:20:00,
2013-11-20 01:30:00,72.9,70.8,29.94,NE,56,1.0,1.0,93,0.00,,,0.00,Wunderground v.1.15,2013-11-20 06:30:00,
2013-11-20 01:40:00,72.8,70.7,29.94,WNW,302,2.0,2.0,93,0.00,,,0.00,Wunderground v.1.15,2013-11-20 06:40:00,
2013-11-20 01:50:00,72.8,70.7,29.94,East,92,2.0,2.0,93,0.00,,,0.00,Wunderground v.1.15,2013-11-20 06:50:00,
2013-11-20 02:00:00,72.9,70.8,29.93,East,89,0.0,0.0,93,0.00,,,0.00,Wunderground v.1.15,2013-11-20 07:00:00,
2013-11-20 02:10:00,72.8,70.7,29.93,East,89,0.0,0.0,93,0.00,,,0.00,Wunderground v.1.15,2013-11-20 07:10:00,
2013-11-20 02:20:00,72.6,70.5,29.93,NNW,343,1.0,2.0,93,0.00,,,0.00,Wunderground v.1.15,2013-11-20 07:20:00,
2013-11-20 02:30:00,72.4,70.3,29.93,NNW,340,1.0,1.0,93,0.00,,,0.00,Wunderground v.1.15,2013-11-20 07:30:00,
2013-11-20 02:40:00,72.2,70.1,29.94,NNW,340,0.0,0.0,93,0.00,,,0.00,Wunderground v.1.15,2013-11-20 07:40:00,
2013-11-20 02:50:00,72.2,70.1,29.94,NNW,335,1.0,2.0,93,0.00,,,0.00,Wunderground v.1.15,2013-11-20 07:50:00,
2013-11-20 03:00:00,72.1,70.3,29.94,NNW,334,1.0,1.0,94,0.00,,,0.00,Wunderground v.1.15,2013-11-20 08:00:00,
2013-11-20 03:10:00,71.9,70.1,29.94,NW,321,2.0,2.0,94,0.00,,,0.00,Wunderground v.1.15,2013-11-20 08:10:00,
2013-11-20 03:20:00,71.7,69.9,29.94,NNW,347,1.0,1.0,94,0.00,,,0.00,Wunderground v.1.15,2013-11-20 08:20:00,
2013-11-20 03:30:00,71.7,69.9,29.94,NNW,332,1.0,1.0,94,0.00,,,0.00,Wunderground v.1.15,2013-11-20 08:30:00,
2013-11-20 03:40:00,71.5,69.7,29.94,NNW,333,0.0,0.0,94,0.00,,,0.00,Wunderground v.1.15,2013-11-20 08:40:00,
2013-11-20 03:50:00,71.3,69.5,29.94,NW,304,1.0,1.0,94,0.00,,,0.00,Wunderground v.1.15,2013-11-20 08:50:00,
2013-11-20 04:00:00,71.3,69.5,29.94,NW,304,0.0,1.0,94,0.00,,,0.00,Wunderground v.1.15,2013-11-20 09:00:00,
2013-11-20 04:10:00,71.2,69.4,29.94,WNW,301,1.0,1.0,94,0.00,,,0.00,Wunderground v.1.15,2013-11-20 09:10:00,
2013-11-20 04:20:00,71.1,69.3,29.94,WNW,302,0.0,0.0,94,0.00,,,0.00,Wunderground v.1.15,2013-11-20 09:20:00,
2013-11-20 04:30:00,71.0,69.2,29.95,WNW,302,0.0,0.0,94,0.00,,,0.00,Wunderground v.1.15,2013-11-20 09:30:00,
2013-11-20 04:40:00,70.9,69.1,29.95,NW,304,0.0,0.0,94,0.00,,,0.00,Wunderground v.1.15,2013-11-20 09:40:00,
2013-11-20 04:50:00,70.8,69.0,29.95,WNW,302,0.0,0.0,94,0.00,,,0.00,Wunderground v.1.15,2013-11-20 09:50:00,
2013-11-20 05:00:00,70.7,68.9,29.95,WNW,302,0.0,0.0,94,0.00,,,0.00,Wunderground v.1.15,2013-11-20 10:00:00,
2013-11-20 05:10:00,70.6,68.8,29.95,NW,304,0.0,0.0,94,0.00,,,0.00,Wunderground v.1.15,2013-11-20 10:10:00,
2013-11-20 05:20:00,70.5,68.7,29.95,NW,304,0.0,0.0,94,0.00,,,0.00,Wunderground v.1.15,2013-11-20 10:20:00,
2013-11-20 05:30:00,70.5,69.0,29.96,North,11,0.0,0.0,95,0.00,,,0.00,Wunderground v.1.15,2013-11-20 10:30:00,
2013-11-20 05:40:00,70.5,69.0,29.96,North,11,0.0,0.0,95,0.00,,,0.00,Wunderground v.1.15,2013-11-20 10:40:00,
2013-11-20 05:50:00,70.1,68.3,29.96,North,11,0.0,0.0,94,0.00,,,0.00,Wunderground v.1.15,2013-11-20 10:50:00,
2013-11-20 06:20:00,70.3,68.8,29.97,NNW,342,0.0,0.0,95,0.00,,,0.00,Wunderground v.1.15,2013-11-20 11:20:00,
2013-11-20 06:30:00,70.2,68.7,29.97,NNW,342,0.0,0.0,95,0.00,,,0.00,Wunderground v.1.15,2013-11-20 11:30:00,
2013-11-20 06:40:00,70.2,68.7,29.98,NNW,341,0.0,0.0,95,0.00,,,0.00,Wunderground v.1.15,2013-11-20 11:40:00,
2013-11-20 06:50:00,70.2,68.7,29.98,NNW,341,0.0,0.0,95,0.00,,,0.00,Wunderground v.1.15,2013-11-20 11:50:00,
2013-11-20 07:00:00,70.2,68.7,29.98,NNW,342,0.0,0.0,95,0.00,,,0.00,Wunderground v.1.15,2013-11-20 12:00:00,
2013-11-20 07:10:00,70.3,68.8,29.98,NNW,339,0.0,0.0,95,0.00,,,0.00,Wunderground v.1.15,2013-11-20 12:10:00,
2013-11-20 07:20:00,70.5,69.0,29.98,NNW,340,0.0,0.0,95,0.00,,,0.01,Wunderground v.1.15,2013-11-20 12:20:00,
2013-11-20 07:30:00,71.0,69.5,29.99,NW,322,0.0,1.0,95,0.00,,,0.01,Wunderground v.1.15,2013-11-20 12:30:00,
2013-11-20 07:40:00,71.4,69.9,30.00,NW,326,1.0,1.0,95,0.00,,,0.01,Wunderground v.1.15,2013-11-20 12:40:00,
2013-11-20 07:50:00,71.6,69.8,30.00,NNW,330,2.0,2.0,94,0.00,,,0.01,Wunderground v.1.15,2013-11-20 12:50:00,
2013-11-20 08:00:00,72.1,70.3,30.00,NW,304,1.0,2.0,94,0.00,,,0.01,Wunderground v.1.15,2013-11-20 13:00:00,
2013-11-20 08:10:00,72.6,70.8,30.00,North,1,2.0,2.0,94,0.00,,,0.01,Wunderground v.1.15,2013-11-20 13:10:00,
2013-11-20 08:20:00,73.4,71.3,30.01,NW,316,2.0,2.0,93,0.00,,,0.01,Wunderground v.1.15,2013-11-20 13:20:00,
2013-11-20 08:30:00,74.2,71.7,30.01,NNW,340,2.0,2.0,92,0.00,,,0.01,Wunderground v.1.15,2013-11-20 13:30:00,
2013-11-20 08:40:00,75.0,72.2,30.01,North,356,1.0,2.0,91,0.00,,,0.01,Wunderground v.1.15,2013-11-20 13:40:00,
2013-11-20 08:50:00,75.5,72.0,30.01,NNE,15,3.0,3.0,89,0.00,,,0.01,Wunderground v.1.15,2013-11-20 13:50:00,
2013-11-20 09:00:00,76.4,72.2,30.01,North,354,2.0,5.0,87,0.00,,,0.01,Wunderground v.1.15,2013-11-20 14:00:00,
2013-11-20 09:10:00,76.8,71.9,30.02,NNW,342,4.0,5.0,85,0.00,,,0.01,Wunderground v.1.15,2013-11-20 14:10:00,
2013-11-20 09:20:00,77.8,72.9,30.02,NNE,32,2.0,3.0,85,0.00,,,0.01,Wunderground v.1.15,2013-11-20 14:20:00,
2013-11-20 09:30:00,78.6,73.0,30.03,NNW,331,3.0,3.0,83,0.00,,,0.01,Wunderground v.1.15,2013-11-20 14:30:00,
2013-11-20 09:40:00,79.1,73.1,30.03,NNE,19,4.0,4.0,82,0.00,,,0.01,Wunderground v.1.15,2013-11-20 14:40:00,
2013-11-20 09:50:00,79.3,72.6,30.03,North,353,3.0,3.0,80,0.00,,,0.01,Wunderground v.1.15,2013-11-20 14:50:00,
2013-11-20 10:00:00,79.7,73.0,30.03,NNE,32,2.0,4.0,80,0.00,,,0.01,Wunderground v.1.15,2013-11-20 15:00:00,
2013-11-20 10:10:00,80.1,73.4,30.03,North,11,3.0,3.0,80,0.00,,,0.01,Wunderground v.1.15,2013-11-20 15:10:00,
2013-11-20 10:20:00,80.7,72.8,30.03,NNE,28,3.0,3.0,77,0.00,,,0.01,Wunderground v.1.15,2013-11-20 15:20:00,
2013-11-20 10:30:00,81.2,72.9,30.03,ENE,78,3.0,3.0,76,0.00,,,0.01,Wunderground v.1.15,2013-11-20 15:30:00,
2013-11-20 10:40:00,81.7,73.4,30.03,NE,51,3.0,6.0,76,0.00,,,0.01,Wunderground v.1.15,2013-11-20 15:40:00,
2013-11-20 10:50:00,81.1,73.2,30.03,ENE,60,5.0,5.0,77,0.00,,,0.01,Wunderground v.1.15,2013-11-20 15:50:00,
2013-11-20 11:10:00,80.8,72.9,30.02,NE,34,6.0,6.0,77,0.00,,,0.01,Wunderground v.1.15,2013-11-20 16:10:00,
2013-11-20 11:20:00,80.8,72.9,30.02,NE,51,6.0,7.0,77,0.00,,,0.01,Wunderground v.1.15,2013-11-20 16:20:00,
2013-11-20 11:30:00,81.3,73.4,30.02,SE,124,5.0,5.0,77,0.00,,,0.01,Wunderground v.1.15,2013-11-20 16:30:00,
2013-11-20 11:40:00,81.5,73.2,30.02,NE,50,6.0,6.0,76,0.00,,,0.01,Wunderground v.1.15,2013-11-20 16:40:00,
2013-11-20 11:50:00,81.6,73.3,30.01,East,101,5.0,5.0,76,0.00,,,0.01,Wunderground v.1.15,2013-11-20 16:50:00,
2013-11-20 12:00:00,82.1,74.2,30.01,NE,53,4.0,4.0,77,0.00,,,0.01,Wunderground v.1.15,2013-11-20 17:00:00,
2013-11-20 12:10:00,81.9,73.6,30.00,ESE,107,5.0,5.0,76,0.00,,,0.01,Wunderground v.1.15,2013-11-20 17:10:00,
2013-11-20 12:20:00,81.5,73.6,30.00,ESE,108,5.0,5.0,77,0.00,,,0.01,Wunderground v.1.15,2013-11-20 17:20:00,
2013-11-20 12:30:00,81.2,73.3,29.99,ESE,108,5.0,11.0,77,0.00,,,0.01,Wunderground v.1.15,2013-11-20 17:30:00,
2013-11-20 12:40:00,80.5,73.4,29.99,SE,136,5.0,5.0,79,0.00,,,0.01,Wunderground v.1.15,2013-11-20 17:40:00,
2013-11-20 12:50:00,80.1,73.0,29.99,East,101,5.0,5.0,79,0.00,,,0.01,Wunderground v.1.15,2013-11-20 17:50:00,
2013-11-20 13:00:00,79.5,73.2,29.99,SE,129,4.0,5.0,81,0.00,,,0.01,Wunderground v.1.15,2013-11-20 18:00:00,
2013-11-20 13:10:00,79.7,73.3,29.98,East,98,3.0,3.0,81,0.00,,,0.01,Wunderground v.1.15,2013-11-20 18:10:00,
2013-11-20 13:20:00,80.3,72.4,29.98,ESE,117,2.0,2.0,77,0.00,,,0.01,Wunderground v.1.15,2013-11-20 18:20:00,
2013-11-20 13:30:00,81.1,72.4,29.97,SE,130,2.0,2.0,75,0.00,,,0.01,Wunderground v.1.15,2013-11-20 18:30:00,
2013-11-20 13:40:00,82.6,72.7,29.97,East,92,2.0,2.0,72,0.00,,,0.01,Wunderground v.1.15,2013-11-20 18:40:00,
2013-11-20 13:50:00,82.8,72.0,29.96,East,81,1.0,2.0,70,0.00,,,0.01,Wunderground v.1.15,2013-11-20 18:50:00,
2013-11-20 14:00:00,82.5,72.1,29.96,SSW,207,2.0,2.0,71,0.00,,,0.01,Wunderground v.1.15,2013-11-20 19:00:00,
2013-11-20 14:10:00,82.4,72.5,29.96,ESE,109,3.0,3.0,72,0.00,,,0.01,Wunderground v.1.15,2013-11-20 19:10:00,
2013-11-20 14:20:00,81.6,71.7,29.96,ESE,118,2.0,2.0,72,0.00,,,0.01,Wunderground v.1.15,2013-11-20 19:20:00,
2013-11-20 14:30:00,81.2,70.9,29.96,East,84,3.0,3.0,71,0.00,,,0.01,Wunderground v.1.15,2013-11-20 19:30:00,
2013-11-20 14:40:00,80.8,71.7,29.96,ESE,120,3.0,3.0,74,0.00,,,0.01,Wunderground v.1.15,2013-11-20 19:40:00,
2013-11-20 14:50:00,80.4,71.3,29.97,East,101,3.0,4.0,74,0.00,,,0.01,Wunderground v.1.15,2013-11-20 19:50:00,
2013-11-20 15:00:00,80.2,70.8,29.97,SSE,167,3.0,3.0,73,0.00,,,0.01,Wunderground v.1.15,2013-11-20 20:00:00,
2013-11-20 15:10:00,80.1,71.1,29.97,South,174,4.0,4.0,74,0.00,,,0.01,Wunderground v.1.15,2013-11-20 20:10:00,
2013-11-20 15:20:00,79.5,72.4,29.97,SSW,198,3.0,3.0,79,0.24,,,0.03,Wunderground v.1.15,2013-11-20 20:20:00,
2013-11-20 15:30:00,78.1,72.5,29.97,South,169,2.0,2.0,83,0.19,,,0.07,Wunderground v.1.15,2013-11-20 20:30:00,
2013-11-20 15:40:00,78.1,72.9,29.97,ESE,102,2.0,2.0,84,0.08,,,0.08,Wunderground v.1.15,2013-11-20 20:40:00,
2013-11-20 15:50:00,78.7,72.4,29.97,SSE,147,2.0,4.0,81,0.04,,,0.08,Wunderground v.1.15,2013-11-20 20:50:00,
2013-11-20 16:00:00,79.4,72.3,29.98,WSW,239,3.0,7.0,79,0.00,,,0.08,Wunderground v.1.15,2013-11-20 21:00:00,
2013-11-20 16:10:00,79.5,72.4,29.98,SSE,167,3.0,3.0,79,0.00,,,0.08,Wunderground v.1.15,2013-11-20 21:10:00,
2013-11-20 16:20:00,79.8,72.7,29.98,ESE,115,2.0,2.0,79,0.00,,,0.08,Wunderground v.1.15,2013-11-20 21:20:00,
2013-11-20 16:30:00,79.7,72.2,29.99,SE,124,3.0,3.0,78,0.00,,,0.08,Wunderground v.1.15,2013-11-20 21:30:00,
2013-11-20 16:40:00,79.6,72.1,29.99,ESE,117,2.0,2.0,78,0.00,,,0.08,Wunderground v.1.15,2013-11-20 21:40:00,
2013-11-20 16:50:00,79.2,72.1,29.99,ESE,119,3.0,3.0,79,0.00,,,0.08,Wunderground v.1.15,2013-11-20 21:50:00,
2013-11-20 17:00:00,78.9,71.8,29.99,ESE,112,2.0,2.0,79,0.00,,,0.08,Wunderground v.1.15,2013-11-20 22:00:00,
2013-11-20 17:10:00,78.8,71.7,30.00,East,92,2.0,2.0,79,0.00,,,0.08,Wunderground v.1.15,2013-11-20 22:10:00,
2013-11-20 17:20:00,78.7,71.6,30.00,ESE,122,2.0,2.0,79,0.00,,,0.08,Wunderground v.1.15,2013-11-20 22:20:00,
2013-11-20 17:30:00,78.7,71.3,30.00,ESE,111,2.0,4.0,78,0.00,,,0.08,Wunderground v.1.15,2013-11-20 22:30:00,
2013-11-20 17:40:00,78.9,71.5,30.01,ENE,70,2.0,6.0,78,0.00,,,0.08,Wunderground v.1.15,2013-11-20 22:40:00,
2013-11-20 17:50:00,78.8,71.4,30.00,ESE,104,3.0,3.0,78,0.00,,,0.08,Wunderground v.1.15,2013-11-20 22:50:00,
2013-11-20 18:00:00,79.0,73.0,30.01,SE,124,3.0,3.0,82,0.00,,,0.08,Wunderground v.1.15,2013-11-20 23:00:00,
2013-11-20 18:10:00,78.6,73.4,30.01,SE,132,4.0,4.0,84,0.00,,,0.08,Wunderground v.1.15,2013-11-20 23:10:00,
2013-11-20 18:20:00,78.2,73.3,30.02,ENE,58,4.0,4.0,85,0.00,,,0.08,Wunderground v.1.15,2013-11-20 23:20:00,
2013-11-20 18:30:00,77.9,73.4,30.01,East,92,4.0,6.0,86,0.00,,,0.08,Wunderground v.1.15,2013-11-20 23:30:00,
2013-11-20 18:40:00,77.4,73.2,30.02,ENE,58,3.0,3.0,87,0.00,,,0.08,Wunderground v.1.15,2013-11-20 23:40:00,
2013-11-20 18:50:00,77.0,73.2,30.02,East,87,2.0,2.0,88,0.00,,,0.08,Wunderground v.1.15,2013-11-20 23:50:00,
2013-11-20 19:00:00,76.9,73.1,30.01,East,86,1.0,2.0,88,0.00,,,0.09,Wunderground v.1.15,2013-11-21 00:00:00,
2013-11-20 19:10:00,76.9,73.1,30.02,East,96,1.0,1.0,88,0.00,,,0.09,Wunderground v.1.15,2013-11-21 00:10:00,
2013-11-20 19:20:00,76.9,73.1,30.03,East,84,1.0,2.0,88,0.00,,,0.09,Wunderground v.1.15,2013-11-21 00:20:00,
2013-11-20 19:30:00,76.9,73.1,30.03,East,79,1.0,1.0,88,0.00,,,0.09,Wunderground v.1.15,2013-11-21 00:30:00,
2013-11-20 19:40:00,76.8,73.0,30.04,ENE,78,0.0,0.0,88,0.00,,,0.09,Wunderground v.1.15,2013-11-21 00:40:00,
2013-11-20 19:50:00,76.9,73.1,30.05,East,90,1.0,1.0,88,0.00,,,0.09,Wunderground v.1.15,2013-11-21 00:50:00,
2013-11-20 20:00:00,77.2,73.4,30.05,East,88,2.0,2.0,88,0.00,,,0.09,Wunderground v.1.15,2013-11-21 01:00:00,
2013-11-20 20:10:00,77.3,73.1,30.05,East,80,2.0,2.0,87,0.00,,,0.09,Wunderground v.1.15,2013-11-21 01:10:00,
2013-11-20 20:20:00,77.1,72.9,30.05,SE,127,1.0,2.0,87,0.00,,,0.09,Wunderground v.1.15,2013-11-21 01:20:00,
2013-11-20 20:30:00,77.0,72.8,30.05,ENE,78,1.0,2.0,87,0.00,,,0.09,Wunderground v.1.15,2013-11-21 01:30:00,
2013-11-20 20:40:00,76.9,72.4,30.06,ESE,104,2.0,2.0,86,0.00,,,0.09,Wunderground v.1.15,2013-11-21 01:40:00,
2013-11-20 20:50:00,76.8,72.3,30.05,East,90,1.0,1.0,86,0.00,,,0.09,Wunderground v.1.15,2013-11-21 01:50:00,
2013-11-20 21:00:00,76.8,72.3,30.06,East,79,1.0,1.0,86,0.00,,,0.09,Wunderground v.1.15,2013-11-21 02:00:00,
2013-11-20 21:10:00,76.6,72.1,30.07,East,84,0.0,0.0,86,0.00,,,0.09,Wunderground v.1.15,2013-11-21 02:10:00,
2013-11-20 21:20:00,76.6,72.1,30.07,East,82,0.0,0.0,86,0.00,,,0.09,Wunderground v.1.15,2013-11-21 02:20:00,
2013-11-20 21:30:00,76.5,72.0,30.07,SE,129,0.0,0.0,86,0.00,,,0.09,Wunderground v.1.15,2013-11-21 02:30:00,
2013-11-20 21:40:00,76.6,72.1,30.07,East,84,0.0,1.0,86,0.00,,,0.09,Wunderground v.1.15,2013-11-21 02:40:00,
2013-11-20 21:50:00,76.8,72.3,30.07,East,79,1.0,1.0,86,0.00,,,0.09,Wunderground v.1.15,2013-11-21 02:50:00,
2013-11-20 22:00:00,76.9,72.4,30.07,ENE,66,1.0,4.0,86,0.00,,,0.09,Wunderground v.1.15,2013-11-21 03:00:00,
2013-11-20 22:10:00,77.1,72.2,30.07,East,96,3.0,3.0,85,0.00,,,0.09,Wunderground v.1.15,2013-11-21 03:10:00,
2013-11-20 22:20:00,77.1,72.2,30.07,East,98,2.0,4.0,85,0.00,,,0.09,Wunderground v.1.15,2013-11-21 03:20:00,
2013-11-20 22:30:00,77.1,71.9,30.07,ESE,107,2.0,2.0,84,0.00,,,0.09,Wunderground v.1.15,2013-11-21 03:30:00,
2013-11-20 22:40:00,76.8,71.9,30.07,ESE,107,0.0,0.0,85,0.00,,,0.09,Wunderground v.1.15,2013-11-21 03:40:00,
2013-11-20 22:50:00,76.5,71.7,30.06,SE,134,0.0,0.0,85,0.00,,,0.09,Wunderground v.1.15,2013-11-21 03:50:00,
2013-11-20 23:00:00,76.3,71.8,30.06,East,80,1.0,2.0,86,0.00,,,0.09,Wunderground v.1.15,2013-11-21 04:00:00,
2013-11-20 23:10:00,76.8,72.3,30.06,East,86,2.0,2.0,86,0.00,,,0.09,Wunderground v.1.15,2013-11-21 04:10:00,
2013-11-20 23:20:00,77.0,71.8,30.06,East,85,3.0,3.0,84,0.00,,,0.09,Wunderground v.1.15,2013-11-21 04:20:00,
2013-11-20 23:30:00,77.1,71.9,30.06,East,90,3.0,6.0,84,0.00,,,0.09,Wunderground v.1.15,2013-11-21 04:30:00,
2013-11-20 23:40:00,77.1,71.5,30.06,ENE,78,3.0,3.0,83,0.00,,,0.09,Wunderground v.1.15,2013-11-21 04:40:00,
2013-11-20 23:50:00,77.2,71.3,30.07,ENE,74,3.0,3.0,82,0.00,,,0.09,Wunderground v.1.15,2013-11-21 04:50:00,